sensor_id;sensor_type;location;lat;lon;timestamp;temperature;humidity
40538;DHT22;27925;41.874;12.526;2023-06-22T00:00:44;27.40;54.60
40538;DHT22;27925;41.874;12.526;2023-06-22T00:03:10;27.30;54.60
40538;DHT22;27925;41.874;12.526;2023-06-22T00:05:36;27.30;54.50
40538;DHT22;27925;41.874;12.526;2023-06-22T00:08:03;27.20;54.50
40538;DHT22;27925;41.874;12.526;2023-06-22T00:10:30;27.20;55.00
40538;DHT22;27925;41.874;12.526;2023-06-22T00:12:56;27.10;54.80
40538;DHT22;27925;41.874;12.526;2023-06-22T00:15:21;27.10;55.10
40538;DHT22;27925;41.874;12.526;2023-06-22T00:17:47;27.00;55.30
40538;DHT22;27925;41.874;12.526;2023-06-22T00:20:13;27.00;55.50
40538;DHT22;27925;41.874;12.526;2023-06-22T00:22:39;27.00;55.60
40538;DHT22;27925;41.874;12.526;2023-06-22T00:25:09;27.00;55.80
40538;DHT22;27925;41.874;12.526;2023-06-22T00:27:35;27.00;55.90
40538;DHT22;27925;41.874;12.526;2023-06-22T00:30:01;27.00;56.10
40538;DHT22;27925;41.874;12.526;2023-06-22T00:32:26;26.90;56.10
40538;DHT22;27925;41.874;12.526;2023-06-22T00:34:52;26.90;56.40
40538;DHT22;27925;41.874;12.526;2023-06-22T00:37:18;26.90;56.50
40538;DHT22;27925;41.874;12.526;2023-06-22T00:39:44;26.90;56.60
40538;DHT22;27925;41.874;12.526;2023-06-22T00:42:09;26.80;56.70
40538;DHT22;27925;41.874;12.526;2023-06-22T00:44:36;26.80;56.90
40538;DHT22;27925;41.874;12.526;2023-06-22T00:47:02;26.80;57.70
40538;DHT22;27925;41.874;12.526;2023-06-22T00:49:29;26.60;57.70
40538;DHT22;27925;41.874;12.526;2023-06-22T00:51:57;26.70;57.90
40538;DHT22;27925;41.874;12.526;2023-06-22T00:54:23;26.60;57.00
40538;DHT22;27925;41.874;12.526;2023-06-22T00:56:59;26.60;57.30
40538;DHT22;27925;41.874;12.526;2023-06-22T00:59:26;26.60;57.30
40538;DHT22;27925;41.874;12.526;2023-06-22T01:01:52;26.60;58.10
40538;DHT22;27925;41.874;12.526;2023-06-22T01:04:18;26.60;57.80
40538;DHT22;27925;41.874;12.526;2023-06-22T01:09:38;26.60;58.10
40538;DHT22;27925;41.874;12.526;2023-06-22T01:12:07;26.60;58.00
40538;DHT22;27925;41.874;12.526;2023-06-22T01:17:05;26.50;58.30
40538;DHT22;27925;41.874;12.526;2023-06-22T01:19:47;26.50;58.30
40538;DHT22;27925;41.874;12.526;2023-06-22T01:22:18;26.50;58.60
40538;DHT22;27925;41.874;12.526;2023-06-22T01:29:57;26.50;59.10
40538;DHT22;27925;41.874;12.526;2023-06-22T01:32:32;26.50;59.00
40538;DHT22;27925;41.874;12.526;2023-06-22T01:35:00;26.50;59.10
40538;DHT22;27925;41.874;12.526;2023-06-22T01:37:27;26.40;59.40
40538;DHT22;27925;41.874;12.526;2023-06-22T01:39:55;26.40;59.60
40538;DHT22;27925;41.874;12.526;2023-06-22T01:42:23;26.30;59.90
40538;DHT22;27925;41.874;12.526;2023-06-22T01:44:49;26.20;60.40
40538;DHT22;27925;41.874;12.526;2023-06-22T01:47:16;26.20;60.70
40538;DHT22;27925;41.874;12.526;2023-06-22T01:49:43;26.20;60.50
40538;DHT22;27925;41.874;12.526;2023-06-22T01:52:09;26.10;60.90
40538;DHT22;27925;41.874;12.526;2023-06-22T01:54:35;26.10;61.00
40538;DHT22;27925;41.874;12.526;2023-06-22T01:57:01;26.10;61.10
40538;DHT22;27925;41.874;12.526;2023-06-22T01:59:34;26.00;61.10
40538;DHT22;27925;41.874;12.526;2023-06-22T02:02:09;25.90;61.30
40538;DHT22;27925;41.874;12.526;2023-06-22T02:04:44;25.90;61.60
40538;DHT22;27925;41.874;12.526;2023-06-22T02:07:14;25.90;61.80
40538;DHT22;27925;41.874;12.526;2023-06-22T02:09:44;25.90;61.50
40538;DHT22;27925;41.874;12.526;2023-06-22T02:12:12;25.80;61.60
40538;DHT22;27925;41.874;12.526;2023-06-22T02:14:39;25.80;61.80
40538;DHT22;27925;41.874;12.526;2023-06-22T02:17:05;25.80;61.80
40538;DHT22;27925;41.874;12.526;2023-06-22T02:19:36;25.80;61.80
40538;DHT22;27925;41.874;12.526;2023-06-22T02:22:02;25.80;61.90
40538;DHT22;27925;41.874;12.526;2023-06-22T02:24:28;25.80;61.80
40538;DHT22;27925;41.874;12.526;2023-06-22T02:26:57;25.80;62.70
40538;DHT22;27925;41.874;12.526;2023-06-22T02:29:23;25.80;62.20
40538;DHT22;27925;41.874;12.526;2023-06-22T02:31:49;25.80;62.20
40538;DHT22;27925;41.874;12.526;2023-06-22T02:34:14;25.70;62.20
40538;DHT22;27925;41.874;12.526;2023-06-22T02:36:45;25.70;62.50
40538;DHT22;27925;41.874;12.526;2023-06-22T02:39:20;25.70;62.40
40538;DHT22;27925;41.874;12.526;2023-06-22T02:41:48;25.60;62.60
40538;DHT22;27925;41.874;12.526;2023-06-22T02:44:14;25.50;62.60
40538;DHT22;27925;41.874;12.526;2023-06-22T02:46:41;25.50;62.70
40538;DHT22;27925;41.874;12.526;2023-06-22T02:49:06;25.50;62.70
40538;DHT22;27925;41.874;12.526;2023-06-22T02:51:35;25.50;62.70
40538;DHT22;27925;41.874;12.526;2023-06-22T02:54:01;25.40;63.00
40538;DHT22;27925;41.874;12.526;2023-06-22T02:56:28;25.40;62.90
40538;DHT22;27925;41.874;12.526;2023-06-22T02:58:55;25.40;62.70
40538;DHT22;27925;41.874;12.526;2023-06-22T03:01:26;25.40;62.60
40538;DHT22;27925;41.874;12.526;2023-06-22T03:03:53;25.40;62.80
40538;DHT22;27925;41.874;12.526;2023-06-22T03:06:20;25.50;62.50
40538;DHT22;27925;41.874;12.526;2023-06-22T03:08:51;25.40;62.40
40538;DHT22;27925;41.874;12.526;2023-06-22T03:11:17;25.30;62.50
40538;DHT22;27925;41.874;12.526;2023-06-22T03:13:43;25.30;62.50
40538;DHT22;27925;41.874;12.526;2023-06-22T03:16:09;25.30;62.60
40538;DHT22;27925;41.874;12.526;2023-06-22T03:18:35;25.30;62.60
40538;DHT22;27925;41.874;12.526;2023-06-22T03:21:01;25.30;62.70
40538;DHT22;27925;41.874;12.526;2023-06-22T03:23:27;25.30;62.70
40538;DHT22;27925;41.874;12.526;2023-06-22T03:25:53;25.30;62.80
40538;DHT22;27925;41.874;12.526;2023-06-22T03:28:21;25.30;62.70
40538;DHT22;27925;41.874;12.526;2023-06-22T03:30:47;25.20;62.90
40538;DHT22;27925;41.874;12.526;2023-06-22T03:33:13;25.20;63.00
40538;DHT22;27925;41.874;12.526;2023-06-22T03:35:38;25.20;63.00
40538;DHT22;27925;41.874;12.526;2023-06-22T03:38:04;25.20;63.00
40538;DHT22;27925;41.874;12.526;2023-06-22T03:40:30;25.30;62.70
40538;DHT22;27925;41.874;12.526;2023-06-22T03:42:56;25.30;62.50
40538;DHT22;27925;41.874;12.526;2023-06-22T03:45:21;25.20;62.80
40538;DHT22;27925;41.874;12.526;2023-06-22T03:47:47;25.20;62.60
40538;DHT22;27925;41.874;12.526;2023-06-22T03:50:13;25.20;62.80
40538;DHT22;27925;41.874;12.526;2023-06-22T03:52:40;25.20;62.90
40538;DHT22;27925;41.874;12.526;2023-06-22T03:55:06;25.20;63.10
40538;DHT22;27925;41.874;12.526;2023-06-22T03:57:32;25.10;63.20
40538;DHT22;27925;41.874;12.526;2023-06-22T03:59:58;25.10;62.80
40538;DHT22;27925;41.874;12.526;2023-06-22T04:02:25;25.10;63.10
40538;DHT22;27925;41.874;12.526;2023-06-22T04:04:51;25.10;62.90
40538;DHT22;27925;41.874;12.526;2023-06-22T04:07:16;25.10;63.20
40538;DHT22;27925;41.874;12.526;2023-06-22T04:09:43;25.10;63.60
40538;DHT22;27925;41.874;12.526;2023-06-22T04:12:09;25.00;63.60
40538;DHT22;27925;41.874;12.526;2023-06-22T04:14:35;25.10;63.70
40538;DHT22;27925;41.874;12.526;2023-06-22T04:17:01;25.00;63.50
40538;DHT22;27925;41.874;12.526;2023-06-22T04:19:27;25.10;63.60
40538;DHT22;27925;41.874;12.526;2023-06-22T04:21:52;25.10;63.60
40538;DHT22;27925;41.874;12.526;2023-06-22T04:24:18;25.20;63.40
40538;DHT22;27925;41.874;12.526;2023-06-22T04:26:44;25.20;63.20
40538;DHT22;27925;41.874;12.526;2023-06-22T04:29:12;25.20;63.30
40538;DHT22;27925;41.874;12.526;2023-06-22T04:31:38;25.30;63.00
40538;DHT22;27925;41.874;12.526;2023-06-22T04:34:05;25.40;62.50
40538;DHT22;27925;41.874;12.526;2023-06-22T04:36:38;25.50;62.50
40538;DHT22;27925;41.874;12.526;2023-06-22T04:39:08;25.50;62.60
40538;DHT22;27925;41.874;12.526;2023-06-22T04:41:35;25.50;62.00
40538;DHT22;27925;41.874;12.526;2023-06-22T04:44:11;25.50;61.70
40538;DHT22;27925;41.874;12.526;2023-06-22T04:46:37;25.60;61.80
40538;DHT22;27925;41.874;12.526;2023-06-22T04:49:09;25.60;62.10
40538;DHT22;27925;41.874;12.526;2023-06-22T04:51:39;25.60;62.20
40538;DHT22;27925;41.874;12.526;2023-06-22T04:54:06;25.70;61.80
40538;DHT22;27925;41.874;12.526;2023-06-22T04:56:32;25.70;62.50
40538;DHT22;27925;41.874;12.526;2023-06-22T04:58:58;25.70;62.40
40538;DHT22;27925;41.874;12.526;2023-06-22T05:01:24;25.80;62.30
40538;DHT22;27925;41.874;12.526;2023-06-22T05:03:50;25.80;61.60
40538;DHT22;27925;41.874;12.526;2023-06-22T05:06:22;25.80;61.60
40538;DHT22;27925;41.874;12.526;2023-06-22T05:08:54;25.90;62.10
40538;DHT22;27925;41.874;12.526;2023-06-22T05:11:26;25.90;62.30
40538;DHT22;27925;41.874;12.526;2023-06-22T05:13:52;26.00;62.50
40538;DHT22;27925;41.874;12.526;2023-06-22T05:16:18;26.00;61.70
40538;DHT22;27925;41.874;12.526;2023-06-22T05:18:52;26.10;61.80
40538;DHT22;27925;41.874;12.526;2023-06-22T05:21:22;26.10;62.10
40538;DHT22;27925;41.874;12.526;2023-06-22T05:23:48;26.20;61.80
40538;DHT22;27925;41.874;12.526;2023-06-22T05:26:14;26.30;61.20
40538;DHT22;27925;41.874;12.526;2023-06-22T05:28:40;26.50;60.60
40538;DHT22;27925;41.874;12.526;2023-06-22T05:31:05;26.60;60.50
40538;DHT22;27925;41.874;12.526;2023-06-22T05:33:31;26.80;60.30
40538;DHT22;27925;41.874;12.526;2023-06-22T05:35:57;27.00;60.10
40538;DHT22;27925;41.874;12.526;2023-06-22T05:38:22;27.10;59.60
40538;DHT22;27925;41.874;12.526;2023-06-22T05:40:48;27.30;59.70
40538;DHT22;27925;41.874;12.526;2023-06-22T05:43:14;27.40;59.20
40538;DHT22;27925;41.874;12.526;2023-06-22T05:45:40;27.50;58.70
40538;DHT22;27925;41.874;12.526;2023-06-22T05:48:06;27.60;58.90
40538;DHT22;27925;41.874;12.526;2023-06-22T05:50:32;27.80;58.60
40538;DHT22;27925;41.874;12.526;2023-06-22T05:52:57;27.90;58.00
40538;DHT22;27925;41.874;12.526;2023-06-22T05:55:23;28.00;57.80
40538;DHT22;27925;41.874;12.526;2023-06-22T05:57:48;28.20;56.60
40538;DHT22;27925;41.874;12.526;2023-06-22T06:00:14;28.40;56.50
40538;DHT22;27925;41.874;12.526;2023-06-22T06:02:40;28.60;56.40
40538;DHT22;27925;41.874;12.526;2023-06-22T06:05:12;28.70;56.50
40538;DHT22;27925;41.874;12.526;2023-06-22T06:07:42;28.90;56.10
40538;DHT22;27925;41.874;12.526;2023-06-22T06:10:09;29.00;55.90
40538;DHT22;27925;41.874;12.526;2023-06-22T06:12:35;29.20;55.60
40538;DHT22;27925;41.874;12.526;2023-06-22T06:15:01;29.40;55.40
40538;DHT22;27925;41.874;12.526;2023-06-22T06:17:27;29.40;54.90
40538;DHT22;27925;41.874;12.526;2023-06-22T06:19:53;29.50;54.60
40538;DHT22;27925;41.874;12.526;2023-06-22T06:22:18;29.60;54.50
40538;DHT22;27925;41.874;12.526;2023-06-22T06:24:47;29.80;54.30
40538;DHT22;27925;41.874;12.526;2023-06-22T06:27:13;29.90;54.10
40538;DHT22;27925;41.874;12.526;2023-06-22T06:29:39;29.90;53.70
40538;DHT22;27925;41.874;12.526;2023-06-22T06:32:05;30.00;53.80
40538;DHT22;27925;41.874;12.526;2023-06-22T06:34:31;30.00;53.30
40538;DHT22;27925;41.874;12.526;2023-06-22T06:36:57;30.00;53.20
40538;DHT22;27925;41.874;12.526;2023-06-22T06:39:22;30.00;53.00
40538;DHT22;27925;41.874;12.526;2023-06-22T06:41:48;30.00;52.70
40538;DHT22;27925;41.874;12.526;2023-06-22T06:44:14;30.20;52.50
40538;DHT22;27925;41.874;12.526;2023-06-22T06:46:39;30.30;52.20
40538;DHT22;27925;41.874;12.526;2023-06-22T06:49:05;30.40;51.90
40538;DHT22;27925;41.874;12.526;2023-06-22T06:51:31;30.50;51.50
40538;DHT22;27925;41.874;12.526;2023-06-22T06:53:57;30.60;51.50
40538;DHT22;27925;41.874;12.526;2023-06-22T06:56:23;30.70;51.10
40538;DHT22;27925;41.874;12.526;2023-06-22T06:58:50;30.90;51.00
40538;DHT22;27925;41.874;12.526;2023-06-22T07:01:16;30.90;51.10
40538;DHT22;27925;41.874;12.526;2023-06-22T07:03:42;31.10;50.80
40538;DHT22;27925;41.874;12.526;2023-06-22T07:06:08;31.20;50.60
40538;DHT22;27925;41.874;12.526;2023-06-22T07:08:34;31.30;50.20
40538;DHT22;27925;41.874;12.526;2023-06-22T07:11:02;31.50;50.20
40538;DHT22;27925;41.874;12.526;2023-06-22T07:13:27;31.60;50.00
40538;DHT22;27925;41.874;12.526;2023-06-22T07:15:53;31.60;50.20
40538;DHT22;27925;41.874;12.526;2023-06-22T07:18:19;31.70;50.10
40538;DHT22;27925;41.874;12.526;2023-06-22T07:20:45;31.80;49.80
40538;DHT22;27925;41.874;12.526;2023-06-22T07:23:10;31.80;49.80
40538;DHT22;27925;41.874;12.526;2023-06-22T07:25:36;31.80;49.80
40538;DHT22;27925;41.874;12.526;2023-06-22T07:28:04;31.90;49.90
40538;DHT22;27925;41.874;12.526;2023-06-22T07:30:31;31.90;49.80
40538;DHT22;27925;41.874;12.526;2023-06-22T07:32:57;31.90;50.00
40538;DHT22;27925;41.874;12.526;2023-06-22T07:35:24;32.00;50.20
40538;DHT22;27925;41.874;12.526;2023-06-22T07:37:50;32.10;50.10
40538;DHT22;27925;41.874;12.526;2023-06-22T07:40:16;32.10;49.90
40538;DHT22;27925;41.874;12.526;2023-06-22T07:42:41;32.20;49.80
40538;DHT22;27925;41.874;12.526;2023-06-22T07:45:08;32.20;49.60
40538;DHT22;27925;41.874;12.526;2023-06-22T07:47:34;32.20;49.60
40538;DHT22;27925;41.874;12.526;2023-06-22T07:50:01;32.20;50.20
40538;DHT22;27925;41.874;12.526;2023-06-22T07:52:28;32.10;50.20
40538;DHT22;27925;41.874;12.526;2023-06-22T07:54:54;32.10;50.20
40538;DHT22;27925;41.874;12.526;2023-06-22T07:57:20;31.90;50.00
40538;DHT22;27925;41.874;12.526;2023-06-22T07:59:46;31.80;50.40
40538;DHT22;27925;41.874;12.526;2023-06-22T08:02:12;31.70;50.40
40538;DHT22;27925;41.874;12.526;2023-06-22T08:04:38;31.70;50.60
40538;DHT22;27925;41.874;12.526;2023-06-22T08:07:05;31.80;50.60
40538;DHT22;27925;41.874;12.526;2023-06-22T08:09:31;31.80;50.50
40538;DHT22;27925;41.874;12.526;2023-06-22T08:11:58;31.70;50.70
40538;DHT22;27925;41.874;12.526;2023-06-22T08:14:26;31.80;50.70
40538;DHT22;27925;41.874;12.526;2023-06-22T08:16:51;31.80;50.30
40538;DHT22;27925;41.874;12.526;2023-06-22T08:19:17;31.80;50.20
40538;DHT22;27925;41.874;12.526;2023-06-22T08:21:43;31.80;50.40
40538;DHT22;27925;41.874;12.526;2023-06-22T08:24:09;31.80;50.20
40538;DHT22;27925;41.874;12.526;2023-06-22T08:26:35;31.80;50.20
40538;DHT22;27925;41.874;12.526;2023-06-22T08:29:03;31.80;50.20
40538;DHT22;27925;41.874;12.526;2023-06-22T08:31:31;31.80;49.90
40538;DHT22;27925;41.874;12.526;2023-06-22T08:33:59;31.80;49.90
40538;DHT22;27925;41.874;12.526;2023-06-22T08:36:25;31.80;49.70
40538;DHT22;27925;41.874;12.526;2023-06-22T08:38:55;31.80;49.50
40538;DHT22;27925;41.874;12.526;2023-06-22T08:41:27;31.90;49.50
40538;DHT22;27925;41.874;12.526;2023-06-22T08:43:53;31.90;49.60
40538;DHT22;27925;41.874;12.526;2023-06-22T08:46:19;32.00;49.80
40538;DHT22;27925;41.874;12.526;2023-06-22T08:48:48;32.00;49.30
40538;DHT22;27925;41.874;12.526;2023-06-22T08:51:14;32.00;49.40
40538;DHT22;27925;41.874;12.526;2023-06-22T08:53:40;31.90;49.20
40538;DHT22;27925;41.874;12.526;2023-06-22T08:56:06;32.00;49.10
40538;DHT22;27925;41.874;12.526;2023-06-22T08:58:31;31.90;48.90
40538;DHT22;27925;41.874;12.526;2023-06-22T09:00:57;32.00;49.30
40538;DHT22;27925;41.874;12.526;2023-06-22T09:03:26;32.00;49.00
40538;DHT22;27925;41.874;12.526;2023-06-22T09:05:52;32.10;49.00
40538;DHT22;27925;41.874;12.526;2023-06-22T09:08:18;32.10;48.90
40538;DHT22;27925;41.874;12.526;2023-06-22T09:10:43;32.00;49.30
40538;DHT22;27925;41.874;12.526;2023-06-22T09:13:09;32.00;49.20
40538;DHT22;27925;41.874;12.526;2023-06-22T09:15:35;32.00;49.50
40538;DHT22;27925;41.874;12.526;2023-06-22T09:18:00;32.00;49.10
40538;DHT22;27925;41.874;12.526;2023-06-22T09:20:26;32.10;49.90
40538;DHT22;27925;41.874;12.526;2023-06-22T09:22:52;32.10;49.80
40538;DHT22;27925;41.874;12.526;2023-06-22T09:25:18;32.00;49.50
40538;DHT22;27925;41.874;12.526;2023-06-22T09:27:46;32.10;48.90
40538;DHT22;27925;41.874;12.526;2023-06-22T09:30:12;32.10;49.40
40538;DHT22;27925;41.874;12.526;2023-06-22T09:32:38;32.10;48.90
40538;DHT22;27925;41.874;12.526;2023-06-22T09:35:05;32.20;49.00
40538;DHT22;27925;41.874;12.526;2023-06-22T09:37:32;32.20;50.10
40538;DHT22;27925;41.874;12.526;2023-06-22T09:39:57;32.20;50.60
40538;DHT22;27925;41.874;12.526;2023-06-22T09:42:23;32.20;51.50
40538;DHT22;27925;41.874;12.526;2023-06-22T09:44:49;32.10;51.60
40538;DHT22;27925;41.874;12.526;2023-06-22T09:47:14;32.10;50.70
40538;DHT22;27925;41.874;12.526;2023-06-22T09:49:40;32.10;50.00
40538;DHT22;27925;41.874;12.526;2023-06-22T09:52:06;32.10;50.60
40538;DHT22;27925;41.874;12.526;2023-06-22T09:54:32;32.10;50.10
40538;DHT22;27925;41.874;12.526;2023-06-22T09:56:57;32.10;49.80
40538;DHT22;27925;41.874;12.526;2023-06-22T09:59:23;32.10;49.80
40538;DHT22;27925;41.874;12.526;2023-06-22T10:01:49;32.10;48.60
40538;DHT22;27925;41.874;12.526;2023-06-22T10:04:14;32.20;47.00
40538;DHT22;27925;41.874;12.526;2023-06-22T10:06:40;32.40;46.10
40538;DHT22;27925;41.874;12.526;2023-06-22T10:09:07;32.50;45.40
40538;DHT22;27925;41.874;12.526;2023-06-22T10:11:33;32.60;44.80
40538;DHT22;27925;41.874;12.526;2023-06-22T10:14:00;32.70;44.80
40538;DHT22;27925;41.874;12.526;2023-06-22T10:16:36;32.70;44.70
40538;DHT22;27925;41.874;12.526;2023-06-22T10:19:02;32.80;44.10
40538;DHT22;27925;41.874;12.526;2023-06-22T10:21:28;32.90;43.70
40538;DHT22;27925;41.874;12.526;2023-06-22T10:23:54;32.90;43.70
40538;DHT22;27925;41.874;12.526;2023-06-22T10:26:21;33.00;43.10
40538;DHT22;27925;41.874;12.526;2023-06-22T10:28:46;33.10;42.80
40538;DHT22;27925;41.874;12.526;2023-06-22T10:31:12;33.20;42.40
40538;DHT22;27925;41.874;12.526;2023-06-22T10:33:38;33.20;42.00
40538;DHT22;27925;41.874;12.526;2023-06-22T10:36:03;33.40;42.40
40538;DHT22;27925;41.874;12.526;2023-06-22T10:38:30;33.30;42.40
40538;DHT22;27925;41.874;12.526;2023-06-22T10:40:55;33.40;41.90
40538;DHT22;27925;41.874;12.526;2023-06-22T10:43:21;33.40;40.80
40538;DHT22;27925;41.874;12.526;2023-06-22T10:45:47;33.50;40.30
40538;DHT22;27925;41.874;12.526;2023-06-22T10:48:12;33.60;39.60
40538;DHT22;27925;41.874;12.526;2023-06-22T10:50:38;33.70;38.50
40538;DHT22;27925;41.874;12.526;2023-06-22T10:53:04;33.70;38.10
40538;DHT22;27925;41.874;12.526;2023-06-22T10:55:29;33.80;37.70
40538;DHT22;27925;41.874;12.526;2023-06-22T10:57:55;33.90;36.90
40538;DHT22;27925;41.874;12.526;2023-06-22T11:00:21;33.90;36.10
40538;DHT22;27925;41.874;12.526;2023-06-22T11:02:47;34.00;35.30
40538;DHT22;27925;41.874;12.526;2023-06-22T11:05:12;34.10;35.40
40538;DHT22;27925;41.874;12.526;2023-06-22T11:07:42;34.20;35.70
40538;DHT22;27925;41.874;12.526;2023-06-22T11:10:08;34.20;35.70
40538;DHT22;27925;41.874;12.526;2023-06-22T11:12:33;34.30;35.60
40538;DHT22;27925;41.874;12.526;2023-06-22T11:14:59;34.40;35.40
40538;DHT22;27925;41.874;12.526;2023-06-22T11:17:25;34.40;35.50
40538;DHT22;27925;41.874;12.526;2023-06-22T11:19:50;34.50;35.50
40538;DHT22;27925;41.874;12.526;2023-06-22T11:22:16;34.60;36.20
40538;DHT22;27925;41.874;12.526;2023-06-22T11:24:42;34.70;36.50
40538;DHT22;27925;41.874;12.526;2023-06-22T11:27:07;34.80;36.90
40538;DHT22;27925;41.874;12.526;2023-06-22T11:29:33;34.90;37.20
40538;DHT22;27925;41.874;12.526;2023-06-22T11:31:59;34.90;36.70
40538;DHT22;27925;41.874;12.526;2023-06-22T11:34:24;35.00;35.00
40538;DHT22;27925;41.874;12.526;2023-06-22T11:36:50;35.10;33.90
40538;DHT22;27925;41.874;12.526;2023-06-22T11:39:16;35.10;32.50
40538;DHT22;27925;41.874;12.526;2023-06-22T11:41:41;35.20;31.90
40538;DHT22;27925;41.874;12.526;2023-06-22T11:44:07;35.30;32.10
40538;DHT22;27925;41.874;12.526;2023-06-22T11:46:33;35.30;32.60
40538;DHT22;27925;41.874;12.526;2023-06-22T11:49:00;35.30;32.20
40538;DHT22;27925;41.874;12.526;2023-06-22T11:51:26;35.40;32.20
40538;DHT22;27925;41.874;12.526;2023-06-22T11:53:51;35.50;31.70
40538;DHT22;27925;41.874;12.526;2023-06-22T11:56:17;35.50;31.80
40538;DHT22;27925;41.874;12.526;2023-06-22T11:58:43;35.50;32.00
40538;DHT22;27925;41.874;12.526;2023-06-22T12:01:08;35.60;32.10
40538;DHT22;27925;41.874;12.526;2023-06-22T12:03:34;35.60;32.00
40538;DHT22;27925;41.874;12.526;2023-06-22T12:06:00;35.70;32.10
40538;DHT22;27925;41.874;12.526;2023-06-22T12:08:25;35.70;31.80
40538;DHT22;27925;41.874;12.526;2023-06-22T12:10:51;35.70;32.00
40538;DHT22;27925;41.874;12.526;2023-06-22T12:13:17;35.80;32.00
40538;DHT22;27925;41.874;12.526;2023-06-22T12:15:43;35.90;32.10
40538;DHT22;27925;41.874;12.526;2023-06-22T12:18:08;35.90;32.30
40538;DHT22;27925;41.874;12.526;2023-06-22T12:20:34;36.00;32.50
40538;DHT22;27925;41.874;12.526;2023-06-22T12:23:01;36.10;32.20
40538;DHT22;27925;41.874;12.526;2023-06-22T12:25:26;36.10;32.00
40538;DHT22;27925;41.874;12.526;2023-06-22T12:27:52;36.10;33.90
40538;DHT22;27925;41.874;12.526;2023-06-22T12:30:19;36.20;36.10
40538;DHT22;27925;41.874;12.526;2023-06-22T12:32:44;36.20;38.30
40538;DHT22;27925;41.874;12.526;2023-06-22T12:35:10;36.10;39.90
40538;DHT22;27925;41.874;12.526;2023-06-22T12:37:40;36.00;40.90
40538;DHT22;27925;41.874;12.526;2023-06-22T12:40:07;36.00;41.70
40538;DHT22;27925;41.874;12.526;2023-06-22T12:42:33;35.90;42.50
40538;DHT22;27925;41.874;12.526;2023-06-22T12:44:58;35.90;42.50
40538;DHT22;27925;41.874;12.526;2023-06-22T12:47:24;35.90;42.40
40538;DHT22;27925;41.874;12.526;2023-06-22T12:49:50;35.90;42.50
40538;DHT22;27925;41.874;12.526;2023-06-22T12:52:16;35.90;42.70
40538;DHT22;27925;41.874;12.526;2023-06-22T12:54:41;35.90;42.70
40538;DHT22;27925;41.874;12.526;2023-06-22T12:57:07;35.90;42.40
40538;DHT22;27925;41.874;12.526;2023-06-22T12:59:33;35.80;42.40
40538;DHT22;27925;41.874;12.526;2023-06-22T13:01:58;35.80;42.70
40538;DHT22;27925;41.874;12.526;2023-06-22T13:04:24;35.80;42.60
40538;DHT22;27925;41.874;12.526;2023-06-22T13:06:50;35.70;42.60
40538;DHT22;27925;41.874;12.526;2023-06-22T13:09:18;35.70;42.70
40538;DHT22;27925;41.874;12.526;2023-06-22T13:11:44;35.70;42.80
40538;DHT22;27925;41.874;12.526;2023-06-22T13:14:10;35.70;42.40
40538;DHT22;27925;41.874;12.526;2023-06-22T13:16:36;35.60;42.10
40538;DHT22;27925;41.874;12.526;2023-06-22T13:19:02;35.60;42.10
40538;DHT22;27925;41.874;12.526;2023-06-22T13:21:28;35.60;41.80
40538;DHT22;27925;41.874;12.526;2023-06-22T13:23:53;35.60;41.70
40538;DHT22;27925;41.874;12.526;2023-06-22T13:26:20;35.60;41.20
40538;DHT22;27925;41.874;12.526;2023-06-22T13:28:46;35.60;40.90
40538;DHT22;27925;41.874;12.526;2023-06-22T13:31:11;35.60;40.90
40538;DHT22;27925;41.874;12.526;2023-06-22T13:33:37;35.60;40.80
40538;DHT22;27925;41.874;12.526;2023-06-22T13:36:04;35.60;40.40
40538;DHT22;27925;41.874;12.526;2023-06-22T13:38:31;35.60;40.30
40538;DHT22;27925;41.874;12.526;2023-06-22T13:40:57;35.60;40.10
40538;DHT22;27925;41.874;12.526;2023-06-22T13:43:26;35.60;40.00
40538;DHT22;27925;41.874;12.526;2023-06-22T13:45:52;35.60;40.00
40538;DHT22;27925;41.874;12.526;2023-06-22T13:48:18;35.60;40.00
40538;DHT22;27925;41.874;12.526;2023-06-22T13:50:44;35.60;40.00
40538;DHT22;27925;41.874;12.526;2023-06-22T13:53:09;35.70;40.10
40538;DHT22;27925;41.874;12.526;2023-06-22T13:55:35;35.70;39.90
40538;DHT22;27925;41.874;12.526;2023-06-22T13:58:01;35.60;40.00
40538;DHT22;27925;41.874;12.526;2023-06-22T14:00:26;35.60;40.00
40538;DHT22;27925;41.874;12.526;2023-06-22T14:02:53;35.60;39.80
40538;DHT22;27925;41.874;12.526;2023-06-22T14:05:20;35.60;39.50
40538;DHT22;27925;41.874;12.526;2023-06-22T14:07:45;35.60;39.60
40538;DHT22;27925;41.874;12.526;2023-06-22T14:10:11;35.60;39.70
40538;DHT22;27925;41.874;12.526;2023-06-22T14:12:37;35.60;39.70
40538;DHT22;27925;41.874;12.526;2023-06-22T14:15:03;35.60;39.90
40538;DHT22;27925;41.874;12.526;2023-06-22T14:17:29;35.60;40.00
40538;DHT22;27925;41.874;12.526;2023-06-22T14:19:54;35.60;39.80
40538;DHT22;27925;41.874;12.526;2023-06-22T14:22:22;35.60;39.90
40538;DHT22;27925;41.874;12.526;2023-06-22T14:24:48;35.60;39.90
40538;DHT22;27925;41.874;12.526;2023-06-22T14:27:14;35.60;39.90
40538;DHT22;27925;41.874;12.526;2023-06-22T14:29:40;35.60;40.00
40538;DHT22;27925;41.874;12.526;2023-06-22T14:32:06;35.60;40.10
40538;DHT22;27925;41.874;12.526;2023-06-22T14:34:33;35.70;40.50
40538;DHT22;27925;41.874;12.526;2023-06-22T14:37:02;35.70;40.60
40538;DHT22;27925;41.874;12.526;2023-06-22T14:39:28;35.80;40.90
40538;DHT22;27925;41.874;12.526;2023-06-22T14:41:53;35.70;41.10
40538;DHT22;27925;41.874;12.526;2023-06-22T14:44:19;35.80;41.10
40538;DHT22;27925;41.874;12.526;2023-06-22T19:43:06;30.90;45.20
40538;DHT22;27925;41.874;12.526;2023-06-22T19:45:31;30.80;46.50
40538;DHT22;27925;41.874;12.526;2023-06-22T19:47:57;30.70;46.50
40538;DHT22;27925;41.874;12.526;2023-06-22T19:50:23;30.70;46.40
40538;DHT22;27925;41.874;12.526;2023-06-22T19:52:49;30.60;46.30
40538;DHT22;27925;41.874;12.526;2023-06-22T19:55:14;30.60;46.30
40538;DHT22;27925;41.874;12.526;2023-06-22T19:57:44;30.60;46.20
40538;DHT22;27925;41.874;12.526;2023-06-22T20:00:12;30.50;46.50
40538;DHT22;27925;41.874;12.526;2023-06-22T20:02:43;30.50;46.30
40538;DHT22;27925;41.874;12.526;2023-06-22T20:05:11;30.50;46.40
40538;DHT22;27925;41.874;12.526;2023-06-22T20:07:41;30.40;46.20
40538;DHT22;27925;41.874;12.526;2023-06-22T20:10:16;30.30;46.30
40538;DHT22;27925;41.874;12.526;2023-06-22T20:12:48;30.30;44.90
40538;DHT22;27925;41.874;12.526;2023-06-22T20:15:22;30.20;46.40
40538;DHT22;27925;41.874;12.526;2023-06-22T20:18:03;30.20;46.10